Mesquite's Hourly Summary for Monday, March 13, 2017
Hour Temp
(f)
RH
(%)
Solar Rad.
(MJ/m2)
Rainfall
(in)
Wind
(mph)
3/13/2017 12:00 AM 48 77 0 0 4.19
3/13/2017 1:00 AM 48 77 0 0 3.59
3/13/2017 2:00 AM 48 77 0 0 2.8
3/13/2017 3:00 AM 48 80 0 0 3.28
3/13/2017 4:00 AM 48 82 0 0 3.86
3/13/2017 5:00 AM 48 83 0 0.1 1.58
3/13/2017 6:00 AM 48 99 0 0.02 0.86
3/13/2017 7:00 AM 48 99 0 0 1.15
3/13/2017 8:00 AM 48 98 0 0 0.24
3/13/2017 9:00 AM 48 94 0.08 0 0.6
3/13/2017 10:00 AM 49 90 0.12 0.01 0.86
3/13/2017 11:00 AM 51 76 0.81 0 2.12
3/13/2017 12:00 PM 53 68 1.09 0 4.25
3/13/2017 1:00 PM 54 65 1.38 0 4.72
3/13/2017 2:00 PM 57 56 2.36 0 4.4
3/13/2017 3:00 PM 60 46 2.89 0 4.11
3/13/2017 4:00 PM 63 40 2.29 0 4.9
3/13/2017 5:00 PM 63 33 2.15 0 5.86
3/13/2017 6:00 PM 62 32 1.4 0 4.88
3/13/2017 7:00 PM 60 32 0.6 0 4.27
3/13/2017 8:00 PM 55 33 0.03 0 4.04
3/13/2017 9:00 PM 52 32 0 0 3.21
3/13/2017 10:00 PM 50 34 0 0 3.6
3/13/2017 11:00 PM 48 36 0 0 3.89
Data Summary 52 64 15.20 0.13 3.22